sensor_id;sensor_type;location;lat;lon;timestamp;pressure;altitude;pressure_sealevel;temperature;humidity
19845;BME280;10083;51.038;7.012;2024-01-30T00:01:18;104163.97;;;9.01;100.00
19845;BME280;10083;51.038;7.012;2024-01-30T00:03:46;104147.34;;;9.08;100.00
19845;BME280;10083;51.038;7.012;2024-01-30T00:06:18;104155.13;;;9.02;100.00
19845;BME280;10083;51.038;7.012;2024-01-30T00:08:46;104137.13;;;8.98;100.00
19845;BME280;10083;51.038;7.012;2024-01-30T00:11:15;104121.28;;;9.02;100.00
19845;BME280;10083;51.038;7.012;2024-01-30T00:13:42;104112.75;;;9.13;100.00
19845;BME280;10083;51.038;7.012;2024-01-30T00:16:20;104102.97;;;9.13;100.00
19845;BME280;10083;51.038;7.012;2024-01-30T00:18:50;104103.88;;;9.14;100.00
19845;BME280;10083;51.038;7.012;2024-01-30T00:21:20;104108.16;;;9.08;100.00
19845;BME280;10083;51.038;7.012;2024-01-30T00:23:48;104098.63;;;9.17;100.00
19845;BME280;10083;51.038;7.012;2024-01-30T00:26:17;104106.59;;;9.15;100.00
19845;BME280;10083;51.038;7.012;2024-01-30T00:28:50;104096.00;;;9.18;100.00
19845;BME280;10083;51.038;7.012;2024-01-30T00:31:18;104105.09;;;9.23;100.00
19845;BME280;10083;51.038;7.012;2024-01-30T00:33:46;104106.84;;;9.23;100.00
19845;BME280;10083;51.038;7.012;2024-01-30T00:36:13;104122.69;;;9.17;100.00
19845;BME280;10083;51.038;7.012;2024-01-30T00:38:46;104138.41;;;9.07;100.00
19845;BME280;10083;51.038;7.012;2024-01-30T00:41:19;104108.41;;;9.16;100.00
19845;BME280;10083;51.038;7.012;2024-01-30T00:44:10;104090.66;;;9.18;100.00
19845;BME280;10083;51.038;7.012;2024-01-30T00:46:42;104089.03;;;9.22;100.00
19845;BME280;10083;51.038;7.012;2024-01-30T00:49:34;104080.09;;;9.21;100.00
19845;BME280;10083;51.038;7.012;2024-01-30T00:52:40;104070.72;;;9.34;100.00
19845;BME280;10083;51.038;7.012;2024-01-30T00:55:48;104087.41;;;9.27;100.00
19845;BME280;10083;51.038;7.012;2024-01-30T00:58:31;104096.22;;;9.24;100.00
19845;BME280;10083;51.038;7.012;2024-01-30T01:01:15;104078.59;;;9.29;100.00
19845;BME280;10083;51.038;7.012;2024-01-30T01:04:03;104093.72;;;9.29;100.00
19845;BME280;10083;51.038;7.012;2024-01-30T01:07:05;104103.19;;;9.19;100.00
19845;BME280;10083;51.038;7.012;2024-01-30T01:09:50;104102.25;;;9.19;100.00
19845;BME280;10083;51.038;7.012;2024-01-30T01:12:40;104091.69;;;9.22;100.00
19845;BME280;10083;51.038;7.012;2024-01-30T01:15:36;104100.47;;;9.18;100.00
19845;BME280;10083;51.038;7.012;2024-01-30T01:18:34;104097.91;;;9.21;100.00
19845;BME280;10083;51.038;7.012;2024-01-30T01:21:12;104083.78;;;9.25;100.00
19845;BME280;10083;51.038;7.012;2024-01-30T01:24:11;104084.84;;;9.30;100.00
19845;BME280;10083;51.038;7.012;2024-01-30T01:26:49;104092.63;;;9.22;100.00
19845;BME280;10083;51.038;7.012;2024-01-30T01:29:38;104083.94;;;9.29;100.00
19845;BME280;10083;51.038;7.012;2024-01-30T01:32:34;104099.75;;;9.23;100.00
19845;BME280;10083;51.038;7.012;2024-01-30T01:35:35;104107.50;;;9.16;100.00
19845;BME280;10083;51.038;7.012;2024-01-30T01:38:03;104097.38;;;9.07;100.00
19845;BME280;10083;51.038;7.012;2024-01-30T01:40:31;104089.72;;;9.16;100.00
19845;BME280;10083;51.038;7.012;2024-01-30T01:43:03;104088.72;;;9.14;100.00
19845;BME280;10083;51.038;7.012;2024-01-30T01:45:33;104083.19;;;9.08;100.00
19845;BME280;10083;51.038;7.012;2024-01-30T01:48:01;104056.94;;;9.22;100.00
19845;BME280;10083;51.038;7.012;2024-01-30T01:50:29;104066.72;;;9.21;100.00
19845;BME280;10083;51.038;7.012;2024-01-30T01:52:57;104071.00;;;9.16;100.00
19845;BME280;10083;51.038;7.012;2024-01-30T01:55:26;104063.13;;;9.21;100.00
19845;BME280;10083;51.038;7.012;2024-01-30T01:57:58;104074.47;;;9.14;100.00
19845;BME280;10083;51.038;7.012;2024-01-30T02:00:26;104069.50;;;9.24;100.00
19845;BME280;10083;51.038;7.012;2024-01-30T02:03:00;104066.13;;;9.30;100.00
19845;BME280;10083;51.038;7.012;2024-01-30T02:05:34;104081.28;;;9.29;100.00
19845;BME280;10083;51.038;7.012;2024-01-30T02:08:02;104081.50;;;9.35;100.00
19845;BME280;10083;51.038;7.012;2024-01-30T02:10:32;104086.88;;;9.37;100.00
19845;BME280;10083;51.038;7.012;2024-01-30T02:13:00;104089.63;;;9.38;100.00
19845;BME280;10083;51.038;7.012;2024-01-30T02:15:28;104102.31;;;9.44;100.00
19845;BME280;10083;51.038;7.012;2024-01-30T02:18:00;104111.13;;;9.41;100.00
19845;BME280;10083;51.038;7.012;2024-01-30T02:20:37;104115.22;;;9.32;100.00
19845;BME280;10083;51.038;7.012;2024-01-30T02:23:28;104110.19;;;9.41;100.00
19845;BME280;10083;51.038;7.012;2024-01-30T02:25:57;104125.97;;;9.33;100.00
19845;BME280;10083;51.038;7.012;2024-01-30T02:28:30;104118.72;;;9.29;100.00
19845;BME280;10083;51.038;7.012;2024-01-30T02:30:57;104107.16;;;9.30;100.00
19845;BME280;10083;51.038;7.012;2024-01-30T02:33:25;104107.25;;;9.33;100.00
19845;BME280;10083;51.038;7.012;2024-01-30T02:35:55;104123.06;;;9.27;100.00
19845;BME280;10083;51.038;7.012;2024-01-30T02:38:27;104125.47;;;9.20;100.00
19845;BME280;10083;51.038;7.012;2024-01-30T02:40:55;104112.50;;;9.06;100.00
19845;BME280;10083;51.038;7.012;2024-01-30T02:43:23;104095.34;;;9.00;100.00
19845;BME280;10083;51.038;7.012;2024-01-30T02:45:51;104070.38;;;8.99;100.00
19845;BME280;10083;51.038;7.012;2024-01-30T02:48:19;104035.63;;;8.99;100.00
19845;BME280;10083;51.038;7.012;2024-01-30T02:50:47;104024.03;;;8.99;100.00
19845;BME280;10083;51.038;7.012;2024-01-30T02:53:15;104000.41;;;9.11;100.00
19845;BME280;10083;51.038;7.012;2024-01-30T02:55:45;104010.00;;;9.06;100.00
19845;BME280;10083;51.038;7.012;2024-01-30T02:58:13;103998.56;;;9.10;100.00
19845;BME280;10083;51.038;7.012;2024-01-30T03:00:41;104002.06;;;9.07;100.00
19845;BME280;10083;51.038;7.012;2024-01-30T03:03:09;103991.84;;;9.21;100.00
19845;BME280;10083;51.038;7.012;2024-01-30T03:05:43;103998.03;;;9.20;100.00
19845;BME280;10083;51.038;7.012;2024-01-30T03:08:10;103996.34;;;9.22;100.00
19845;BME280;10083;51.038;7.012;2024-01-30T03:10:50;104000.66;;;9.19;100.00
19845;BME280;10083;51.038;7.012;2024-01-30T03:13:24;104009.59;;;9.19;100.00
19845;BME280;10083;51.038;7.012;2024-01-30T03:15:52;104001.47;;;9.16;100.00
19845;BME280;10083;51.038;7.012;2024-01-30T03:18:37;103999.88;;;9.21;100.00
19845;BME280;10083;51.038;7.012;2024-01-30T03:21:12;103990.78;;;9.16;100.00
19845;BME280;10083;51.038;7.012;2024-01-30T03:23:46;103997.72;;;9.11;100.00
19845;BME280;10083;51.038;7.012;2024-01-30T03:26:25;103983.66;;;9.17;100.00
19845;BME280;10083;51.038;7.012;2024-01-30T03:29:00;103978.47;;;9.21;100.00
19845;BME280;10083;51.038;7.012;2024-01-30T03:31:28;103981.19;;;9.23;100.00
19845;BME280;10083;51.038;7.012;2024-01-30T03:34:05;103991.53;;;9.12;100.00
19845;BME280;10083;51.038;7.012;2024-01-30T03:36:37;103987.25;;;9.17;100.00
19845;BME280;10083;51.038;7.012;2024-01-30T03:39:10;103978.22;;;9.14;100.00
19845;BME280;10083;51.038;7.012;2024-01-30T03:41:58;103976.44;;;9.14;100.00
19845;BME280;10083;51.038;7.012;2024-01-30T03:44:36;103966.50;;;9.10;100.00
19845;BME280;10083;51.038;7.012;2024-01-30T03:47:12;103969.06;;;9.07;100.00
19845;BME280;10083;51.038;7.012;2024-01-30T03:49:49;103967.25;;;9.06;100.00
19845;BME280;10083;51.038;7.012;2024-01-30T03:52:27;103960.94;;;9.04;100.00
19845;BME280;10083;51.038;7.012;2024-01-30T03:55:09;103947.16;;;9.17;100.00
19845;BME280;10083;51.038;7.012;2024-01-30T03:57:48;103951.63;;;9.18;100.00
19845;BME280;10083;51.038;7.012;2024-01-30T04:00:16;103946.41;;;9.21;100.00
19845;BME280;10083;51.038;7.012;2024-01-30T04:02:47;103945.88;;;9.33;100.00
19845;BME280;10083;51.038;7.012;2024-01-30T04:05:17;103947.78;;;9.35;100.00
19845;BME280;10083;51.038;7.012;2024-01-30T04:07:45;103968.25;;;9.35;100.00
19845;BME280;10083;51.038;7.012;2024-01-30T04:10:14;103981.41;;;9.29;100.00
19845;BME280;10083;51.038;7.012;2024-01-30T04:12:44;103992.19;;;9.32;100.00
19845;BME280;10083;51.038;7.012;2024-01-30T04:15:14;103986.97;;;9.35;100.00
19845;BME280;10083;51.038;7.012;2024-01-30T04:17:42;103987.22;;;9.42;100.00
19845;BME280;10083;51.038;7.012;2024-01-30T04:20:15;103998.69;;;9.38;100.00
19845;BME280;10083;51.038;7.012;2024-01-30T04:22:53;104005.03;;;9.42;100.00
19845;BME280;10083;51.038;7.012;2024-01-30T04:25:25;104013.97;;;9.42;100.00
19845;BME280;10083;51.038;7.012;2024-01-30T04:28:03;104036.66;;;9.28;100.00
19845;BME280;10083;51.038;7.012;2024-01-30T04:30:39;104030.72;;;9.37;100.00
19845;BME280;10083;51.038;7.012;2024-01-30T04:33:07;104039.66;;;9.37;100.00
19845;BME280;10083;51.038;7.012;2024-01-30T04:35:35;104039.50;;;9.33;100.00
19845;BME280;10083;51.038;7.012;2024-01-30T04:38:06;104040.47;;;9.35;100.00
19845;BME280;10083;51.038;7.012;2024-01-30T04:40:42;104047.59;;;9.36;100.00
19845;BME280;10083;51.038;7.012;2024-01-30T04:43:23;104064.41;;;9.32;100.00
19845;BME280;10083;51.038;7.012;2024-01-30T04:45:58;104064.25;;;9.27;100.00
19845;BME280;10083;51.038;7.012;2024-01-30T04:48:26;104059.81;;;9.28;100.00
19845;BME280;10083;51.038;7.012;2024-01-30T04:50:58;104065.16;;;9.28;100.00
19845;BME280;10083;51.038;7.012;2024-01-30T04:53:29;104068.53;;;9.22;100.00
19845;BME280;10083;51.038;7.012;2024-01-30T04:55:57;104083.28;;;9.11;100.00
19845;BME280;10083;51.038;7.012;2024-01-30T04:58:26;104076.09;;;9.10;100.00
19845;BME280;10083;51.038;7.012;2024-01-30T05:01:00;104072.22;;;9.00;100.00
19845;BME280;10083;51.038;7.012;2024-01-30T05:03:28;104063.84;;;8.91;100.00
19845;BME280;10083;51.038;7.012;2024-01-30T05:06:01;104041.44;;;8.88;100.00
19845;BME280;10083;51.038;7.012;2024-01-30T05:08:32;104024.28;;;8.81;100.00
19845;BME280;10083;51.038;7.012;2024-01-30T05:11:02;104005.41;;;8.77;100.00
19845;BME280;10083;51.038;7.012;2024-01-30T05:13:31;103984.66;;;8.70;100.00
19845;BME280;10083;51.038;7.012;2024-01-30T05:16:03;103953.56;;;8.72;100.00
19845;BME280;10083;51.038;7.012;2024-01-30T05:18:31;103919.00;;;8.76;100.00
19845;BME280;10083;51.038;7.012;2024-01-30T05:20:59;103908.97;;;8.71;100.00
19845;BME280;10083;51.038;7.012;2024-01-30T05:23:42;103883.00;;;8.65;100.00
19845;BME280;10083;51.038;7.012;2024-01-30T05:26:10;103875.81;;;8.64;100.00
19845;BME280;10083;51.038;7.012;2024-01-30T05:28:38;103848.19;;;8.63;100.00
19845;BME280;10083;51.038;7.012;2024-01-30T05:31:08;103829.44;;;8.62;100.00
19845;BME280;10083;51.038;7.012;2024-01-30T05:33:37;103834.44;;;8.51;100.00
19845;BME280;10083;51.038;7.012;2024-01-30T05:36:05;103815.72;;;8.51;100.00
19845;BME280;10083;51.038;7.012;2024-01-30T05:38:33;103789.78;;;8.47;100.00
19845;BME280;10083;51.038;7.012;2024-01-30T05:41:03;103768.28;;;8.44;100.00
19845;BME280;10083;51.038;7.012;2024-01-30T05:43:32;103764.69;;;8.42;100.00
19845;BME280;10083;51.038;7.012;2024-01-30T05:46:00;103739.81;;;8.45;100.00
19845;BME280;10083;51.038;7.012;2024-01-30T05:48:29;103735.00;;;8.33;100.00
19845;BME280;10083;51.038;7.012;2024-01-30T05:50:57;103711.03;;;8.35;100.00
19845;BME280;10083;51.038;7.012;2024-01-30T05:53:30;103687.38;;;8.47;100.00
19845;BME280;10083;51.038;7.012;2024-01-30T05:56:02;103670.38;;;8.43;100.00
19845;BME280;10083;51.038;7.012;2024-01-30T05:58:32;103661.75;;;8.52;100.00
19845;BME280;10083;51.038;7.012;2024-01-30T06:01:00;103646.66;;;8.54;100.00
19845;BME280;10083;51.038;7.012;2024-01-30T06:03:31;103633.34;;;8.55;100.00
19845;BME280;10083;51.038;7.012;2024-01-30T06:05:59;103613.84;;;8.58;100.00
19845;BME280;10083;51.038;7.012;2024-01-30T06:08:27;103612.06;;;8.58;100.00
19845;BME280;10083;51.038;7.012;2024-01-30T06:10:55;103606.78;;;8.60;100.00
19845;BME280;10083;51.038;7.012;2024-01-30T06:13:23;103584.72;;;8.66;100.00
19845;BME280;10083;51.038;7.012;2024-01-30T06:15:52;103568.94;;;8.75;100.00
19845;BME280;10083;51.038;7.012;2024-01-30T06:18:27;103571.44;;;8.69;100.00
19845;BME280;10083;51.038;7.012;2024-01-30T06:20:58;103565.13;;;8.67;100.00
19845;BME280;10083;51.038;7.012;2024-01-30T06:23:27;103562.88;;;8.80;100.00
19845;BME280;10083;51.038;7.012;2024-01-30T06:25:55;103578.09;;;8.83;100.00
19845;BME280;10083;51.038;7.012;2024-01-30T06:28:42;103575.84;;;8.98;100.00
19845;BME280;10083;51.038;7.012;2024-01-30T06:31:15;103590.97;;;8.96;100.00
19845;BME280;10083;51.038;7.012;2024-01-30T06:33:46;103584.00;;;9.02;100.00
19845;BME280;10083;51.038;7.012;2024-01-30T06:36:17;103599.19;;;9.03;100.00
19845;BME280;10083;51.038;7.012;2024-01-30T06:38:45;103587.19;;;9.21;100.00
19845;BME280;10083;51.038;7.012;2024-01-30T06:41:14;103608.50;;;9.18;100.00
19845;BME280;10083;51.038;7.012;2024-01-30T06:43:42;103618.50;;;9.25;100.00
19845;BME280;10083;51.038;7.012;2024-01-30T06:46:11;103634.50;;;9.23;100.00
19845;BME280;10083;51.038;7.012;2024-01-30T06:48:40;103639.03;;;9.26;100.00
19845;BME280;10083;51.038;7.012;2024-01-30T06:51:11;103656.94;;;9.28;100.00
19845;BME280;10083;51.038;7.012;2024-01-30T06:53:46;103665.03;;;9.31;100.00
19845;BME280;10083;51.038;7.012;2024-01-30T06:56:14;103682.13;;;9.36;100.00
19845;BME280;10083;51.038;7.012;2024-01-30T06:58:47;103681.72;;;9.54;100.00
19845;BME280;10083;51.038;7.012;2024-01-30T07:01:16;103714.53;;;9.47;100.00
19845;BME280;10083;51.038;7.012;2024-01-30T07:03:47;103737.13;;;9.57;100.00
19845;BME280;10083;51.038;7.012;2024-01-30T07:06:22;103763.31;;;9.38;100.00
19845;BME280;10083;51.038;7.012;2024-01-30T07:08:53;103751.84;;;9.42;100.00
19845;BME280;10083;51.038;7.012;2024-01-30T07:11:22;103758.25;;;9.47;100.00
19845;BME280;10083;51.038;7.012;2024-01-30T07:13:52;103788.16;;;9.34;100.00
19845;BME280;10083;51.038;7.012;2024-01-30T07:16:23;103795.56;;;9.44;100.00
19845;BME280;10083;51.038;7.012;2024-01-30T07:18:52;103804.00;;;9.28;100.00
19845;BME280;10083;51.038;7.012;2024-01-30T07:21:23;103797.53;;;9.50;100.00
19845;BME280;10083;51.038;7.012;2024-01-30T07:26:33;103843.97;;;9.52;100.00
19845;BME280;10083;51.038;7.012;2024-01-30T07:29:02;103856.31;;;9.47;100.00
19845;BME280;10083;51.038;7.012;2024-01-30T07:31:29;103871.38;;;9.45;100.00
19845;BME280;10083;51.038;7.012;2024-01-30T07:33:57;103878.50;;;9.44;100.00
19845;BME280;10083;51.038;7.012;2024-01-30T07:36:24;103878.41;;;9.41;100.00
19845;BME280;10083;51.038;7.012;2024-01-30T07:38:52;103882.13;;;9.46;100.00
19845;BME280;10083;51.038;7.012;2024-01-30T07:41:20;103886.38;;;9.40;100.00
19845;BME280;10083;51.038;7.012;2024-01-30T07:43:50;103886.50;;;9.43;100.00
19845;BME280;10083;51.038;7.012;2024-01-30T07:46:18;103879.69;;;9.54;100.00
19845;BME280;10083;51.038;7.012;2024-01-30T07:48:46;103889.06;;;9.68;100.00
19845;BME280;10083;51.038;7.012;2024-01-30T07:51:14;103907.59;;;9.62;100.00
19845;BME280;10083;51.038;7.012;2024-01-30T07:53:41;103913.22;;;9.70;100.00
19845;BME280;10083;51.038;7.012;2024-01-30T08:03:33;103932.31;;;9.82;100.00
19845;BME280;10083;51.038;7.012;2024-01-30T08:06:00;103938.25;;;10.00;100.00
19845;BME280;10083;51.038;7.012;2024-01-30T08:08:31;103953.59;;;10.07;100.00
19845;BME280;10083;51.038;7.012;2024-01-30T08:10:59;103988.34;;;10.06;100.00
19845;BME280;10083;51.038;7.012;2024-01-30T08:13:28;104000.31;;;10.15;100.00
19845;BME280;10083;51.038;7.012;2024-01-30T08:15:55;104029.50;;;10.36;100.00
19845;BME280;10083;51.038;7.012;2024-01-30T08:18:24;104065.09;;;10.32;100.00
19845;BME280;10083;51.038;7.012;2024-01-30T08:20:53;104090.31;;;10.38;100.00
19845;BME280;10083;51.038;7.012;2024-01-30T08:38:03;104168.19;;;10.44;100.00
19845;BME280;10083;51.038;7.012;2024-01-30T08:40:34;104197.56;;;10.41;100.00
19845;BME280;10083;51.038;7.012;2024-01-30T08:43:02;104209.44;;;10.48;100.00
19845;BME280;10083;51.038;7.012;2024-01-30T08:45:31;104240.91;;;10.55;100.00
19845;BME280;10083;51.038;7.012;2024-01-30T08:48:01;104265.41;;;10.66;100.00
19845;BME280;10083;51.038;7.012;2024-01-30T08:50:33;104294.44;;;10.79;100.00
19845;BME280;10083;51.038;7.012;2024-01-30T08:53:06;104337.25;;;10.77;100.00
19845;BME280;10083;51.038;7.012;2024-01-30T08:55:34;104358.28;;;10.92;100.00
19845;BME280;10083;51.038;7.012;2024-01-30T08:58:02;104395.72;;;10.87;100.00
19845;BME280;10083;51.038;7.012;2024-01-30T09:00:35;104421.94;;;10.98;100.00
19845;BME280;10083;51.038;7.012;2024-01-30T09:03:03;104440.03;;;11.03;100.00
19845;BME280;10083;51.038;7.012;2024-01-30T09:05:32;104452.84;;;11.12;100.00
19845;BME280;10083;51.038;7.012;2024-01-30T09:08:04;104480.53;;;11.11;100.00
19845;BME280;10083;51.038;7.012;2024-01-30T09:10:33;104499.19;;;11.08;100.00
19845;BME280;10083;51.038;7.012;2024-01-30T09:13:03;104501.69;;;11.28;100.00
19845;BME280;10083;51.038;7.012;2024-01-30T09:15:36;104525.41;;;11.42;100.00
19845;BME280;10083;51.038;7.012;2024-01-30T10:11:31;104888.41;;;13.05;100.00
19845;BME280;10083;51.038;7.012;2024-01-30T10:14:01;104908.97;;;13.03;100.00
19845;BME280;10083;51.038;7.012;2024-01-30T10:16:36;104921.44;;;13.01;100.00
19845;BME280;10083;51.038;7.012;2024-01-30T10:19:13;104937.84;;;12.82;100.00
19845;BME280;10083;51.038;7.012;2024-01-30T10:21:52;104944.09;;;12.81;100.00
19845;BME280;10083;51.038;7.012;2024-01-30T10:24:28;104943.81;;;12.99;100.00
19845;BME280;10083;51.038;7.012;2024-01-30T10:27:15;104941.47;;;13.35;100.00
19845;BME280;10083;51.038;7.012;2024-01-30T10:33:08;104954.00;;;13.34;100.00
19845;BME280;10083;51.038;7.012;2024-01-30T10:52:13;105007.06;;;13.11;100.00
19845;BME280;10083;51.038;7.012;2024-01-30T10:54:44;104994.53;;;13.12;100.00
19845;BME280;10083;51.038;7.012;2024-01-30T10:57:12;104991.16;;;13.18;100.00
19845;BME280;10083;51.038;7.012;2024-01-30T10:59:40;105001.41;;;13.04;100.00
19845;BME280;10083;51.038;7.012;2024-01-30T11:02:09;105000.53;;;13.05;100.00
19845;BME280;10083;51.038;7.012;2024-01-30T11:04:37;104999.66;;;13.06;100.00
19845;BME280;10083;51.038;7.012;2024-01-30T11:07:15;104996.53;;;13.18;100.00
19845;BME280;10083;51.038;7.012;2024-01-30T11:09:48;104995.38;;;13.11;100.00
19845;BME280;10083;51.038;7.012;2024-01-30T11:12:16;104996.22;;;13.10;100.00
19845;BME280;10083;51.038;7.012;2024-01-30T11:14:43;104992.09;;;13.20;100.00
19845;BME280;10083;51.038;7.012;2024-01-30T11:17:11;105010.84;;;13.17;100.00
19845;BME280;10083;51.038;7.012;2024-01-30T11:19:38;105004.00;;;13.53;100.00
19845;BME280;10083;51.038;7.012;2024-01-30T11:22:08;104997.72;;;13.52;100.00
19845;BME280;10083;51.038;7.012;2024-01-30T11:24:40;105003.44;;;13.36;100.00
19845;BME280;10083;51.038;7.012;2024-01-30T11:27:08;105001.44;;;13.57;100.00
19845;BME280;10083;51.038;7.012;2024-01-30T11:29:36;104989.00;;;13.61;100.00
19845;BME280;10083;51.038;7.012;2024-01-30T11:32:03;104975.22;;;13.80;100.00
19845;BME280;10083;51.038;7.012;2024-01-30T11:34:32;104955.84;;;14.22;100.00
19845;BME280;10083;51.038;7.012;2024-01-30T11:37:03;104943.56;;;14.33;100.00
19845;BME280;10083;51.038;7.012;2024-01-30T11:39:30;104940.44;;;14.47;100.00
19845;BME280;10083;51.038;7.012;2024-01-30T11:41:59;104948.94;;;14.31;100.00
19845;BME280;10083;51.038;7.012;2024-01-30T11:44:29;104929.47;;;14.41;100.00
19845;BME280;10083;51.038;7.012;2024-01-30T11:46:56;104952.63;;;14.35;100.00
19845;BME280;10083;51.038;7.012;2024-01-30T11:49:24;104937.63;;;14.43;100.00
19845;BME280;10083;51.038;7.012;2024-01-30T11:51:52;104935.38;;;14.60;100.00
19845;BME280;10083;51.038;7.012;2024-01-30T11:54:19;104933.66;;;14.62;100.00
19845;BME280;10083;51.038;7.012;2024-01-30T11:56:46;104924.34;;;14.85;100.00
19845;BME280;10083;51.038;7.012;2024-01-30T11:59:15;104962.16;;;14.54;100.00
19845;BME280;10083;51.038;7.012;2024-01-30T12:01:42;104993.16;;;14.36;100.00
19845;BME280;10083;51.038;7.012;2024-01-30T12:04:09;104974.84;;;14.56;100.00
19845;BME280;10083;51.038;7.012;2024-01-30T12:06:39;104939.59;;;14.83;100.00
19845;BME280;10083;51.038;7.012;2024-01-30T12:09:07;104969.84;;;14.38;100.00
19845;BME280;10083;51.038;7.012;2024-01-30T12:11:43;104956.16;;;14.64;100.00
19845;BME280;10083;51.038;7.012;2024-01-30T12:14:14;104960.13;;;14.45;100.00
19845;BME280;10083;51.038;7.012;2024-01-30T12:16:42;104984.31;;;14.42;100.00
19845;BME280;10083;51.038;7.012;2024-01-30T12:19:09;105005.56;;;14.31;100.00
19845;BME280;10083;51.038;7.012;2024-01-30T12:21:38;105000.38;;;14.37;100.00
19845;BME280;10083;51.038;7.012;2024-01-30T12:24:06;105002.91;;;14.33;100.00
19845;BME280;10083;51.038;7.012;2024-01-30T12:26:34;105040.41;;;13.95;100.00
19845;BME280;10083;51.038;7.012;2024-01-30T12:29:04;105024.25;;;14.25;100.00
19845;BME280;10083;51.038;7.012;2024-01-30T12:31:33;105015.75;;;14.40;100.00
19845;BME280;10083;51.038;7.012;2024-01-30T12:34:00;105005.19;;;14.49;100.00
19845;BME280;10083;51.038;7.012;2024-01-30T12:36:28;104984.13;;;14.66;100.00
19845;BME280;10083;51.038;7.012;2024-01-30T12:38:56;104950.41;;;15.17;100.00
19845;BME280;10083;51.038;7.012;2024-01-30T12:41:23;104957.47;;;15.12;100.00
19845;BME280;10083;51.038;7.012;2024-01-30T12:43:54;104971.16;;;14.85;100.00
19845;BME280;10083;51.038;7.012;2024-01-30T12:46:21;105016.84;;;14.78;100.00
19845;BME280;10083;51.038;7.012;2024-01-30T12:48:49;104978.25;;;14.82;100.00
19845;BME280;10083;51.038;7.012;2024-01-30T12:51:16;104971.94;;;14.81;100.00
19845;BME280;10083;51.038;7.012;2024-01-30T12:53:43;105016.44;;;14.64;100.00
19845;BME280;10083;51.038;7.012;2024-01-30T12:56:12;105018.44;;;14.71;100.00
19845;BME280;10083;51.038;7.012;2024-01-30T12:58:40;105027.25;;;14.64;100.00
19845;BME280;10083;51.038;7.012;2024-01-30T13:01:09;105064.25;;;14.38;100.00
19845;BME280;10083;51.038;7.012;2024-01-30T13:03:39;105071.78;;;14.22;100.00
19845;BME280;10083;51.038;7.012;2024-01-30T13:06:07;105073.50;;;14.20;100.00
19845;BME280;10083;51.038;7.012;2024-01-30T13:08:34;105095.25;;;13.97;100.00
19845;BME280;10083;51.038;7.012;2024-01-30T13:11:03;105126.59;;;13.67;100.00
19845;BME280;10083;51.038;7.012;2024-01-30T13:13:30;105135.97;;;13.78;100.00
19845;BME280;10083;51.038;7.012;2024-01-30T13:15:57;105127.31;;;13.88;100.00
19845;BME280;10083;51.038;7.012;2024-01-30T13:18:24;105124.88;;;13.96;100.00
19845;BME280;10083;51.038;7.012;2024-01-30T13:20:54;105125.19;;;14.05;100.00
19845;BME280;10083;51.038;7.012;2024-01-30T13:23:23;105122.72;;;14.13;100.00
19845;BME280;10083;51.038;7.012;2024-01-30T13:25:50;105130.75;;;14.11;100.00
19845;BME280;10083;51.038;7.012;2024-01-30T13:28:17;105110.66;;;14.01;100.00
19845;BME280;10083;51.038;7.012;2024-01-30T13:30:44;105133.13;;;14.00;100.00
19845;BME280;10083;51.038;7.012;2024-01-30T13:33:11;105126.06;;;14.05;100.00
19845;BME280;10083;51.038;7.012;2024-01-30T13:35:38;105138.97;;;13.87;100.00
19845;BME280;10083;51.038;7.012;2024-01-30T13:38:07;105158.59;;;13.83;100.00
19845;BME280;10083;51.038;7.012;2024-01-30T13:40:36;105144.91;;;13.77;100.00
19845;BME280;10083;51.038;7.012;2024-01-30T13:43:03;105184.00;;;13.66;100.00
19845;BME280;10083;51.038;7.012;2024-01-30T13:45:30;105175.16;;;13.69;100.00
19845;BME280;10083;51.038;7.012;2024-01-30T13:47:57;105179.63;;;13.68;100.00
19845;BME280;10083;51.038;7.012;2024-01-30T13:50:24;105178.84;;;13.72;100.00
19845;BME280;10083;51.038;7.012;2024-01-30T13:52:51;105188.44;;;13.64;100.00
19845;BME280;10083;51.038;7.012;2024-01-30T13:55:18;105188.44;;;13.64;100.00
19845;BME280;10083;51.038;7.012;2024-01-30T13:57:47;105170.59;;;13.68;100.00
19845;BME280;10083;51.038;7.012;2024-01-30T14:00:14;105144.59;;;13.68;100.00
19845;BME280;10083;51.038;7.012;2024-01-30T14:02:42;105132.09;;;13.70;100.00
19845;BME280;10083;51.038;7.012;2024-01-30T14:05:09;105127.03;;;13.54;100.00
19845;BME280;10083;51.038;7.012;2024-01-30T14:07:37;105085.69;;;13.53;100.00
19845;BME280;10083;51.038;7.012;2024-01-30T14:10:06;105065.81;;;13.48;100.00
19845;BME280;10083;51.038;7.012;2024-01-30T14:12:33;105048.91;;;13.54;100.00
19845;BME280;10083;51.038;7.012;2024-01-30T14:15:02;105038.13;;;13.54;100.00
19845;BME280;10083;51.038;7.012;2024-01-30T14:17:29;105034.22;;;13.44;100.00
19845;BME280;10083;51.038;7.012;2024-01-30T14:19:56;105004.59;;;13.44;100.00
19845;BME280;10083;51.038;7.012;2024-01-30T14:22:23;104988.25;;;13.38;100.00
19845;BME280;10083;51.038;7.012;2024-01-30T14:24:50;104966.19;;;13.50;100.00
19845;BME280;10083;51.038;7.012;2024-01-30T14:27:17;104966.31;;;13.53;100.00
19845;BME280;10083;51.038;7.012;2024-01-30T14:29:44;104955.72;;;13.59;100.00
19845;BME280;10083;51.038;7.012;2024-01-30T14:32:12;104964.16;;;13.43;100.00
19845;BME280;10083;51.038;7.012;2024-01-30T14:34:41;104939.25;;;13.50;100.00
19845;BME280;10083;51.038;7.012;2024-01-30T14:37:09;104949.41;;;13.58;100.00
19845;BME280;10083;51.038;7.012;2024-01-30T14:39:36;104954.75;;;13.57;100.00
19845;BME280;10083;51.038;7.012;2024-01-30T14:42:06;104951.28;;;13.61;100.00
19845;BME280;10083;51.038;7.012;2024-01-30T14:44:33;104946.91;;;13.65;100.00